createdAt,value
2022-08-14T00:02:58.905Z,43.25
2022-08-14T00:13:00.545Z,45.87
2022-08-14T00:23:14.584Z,46.40
2022-08-14T00:33:18.608Z,46.19
2022-08-14T00:43:20.075Z,46.48
2022-08-14T00:53:23.606Z,47.91
2022-08-14T01:03:29.458Z,49.13
2022-08-14T01:13:42.748Z,49.54
2022-08-14T01:23:56.164Z,50.50
2022-08-14T01:35:18.268Z,50.09
2022-08-14T01:44:32.908Z,50.91
2022-08-14T01:54:38.099Z,50.98
2022-08-14T02:04:55.638Z,51.37
2022-08-14T02:15:01.570Z,52.22
2022-08-14T02:25:03.793Z,52.42
2022-08-14T02:35:11.459Z,53.07
2022-08-14T02:45:13.454Z,52.99
2022-08-14T02:55:20.464Z,53.00
2022-08-14T03:05:23.586Z,53.12
2022-08-14T03:15:25.444Z,53.72
2022-08-14T03:25:26.988Z,54.52
2022-08-14T03:35:37.389Z,55.23
2022-08-14T03:46:52.663Z,55.73
2022-08-14T03:56:33.028Z,55.85
2022-08-14T04:06:43.308Z,57.94
2022-08-14T04:16:50.729Z,59.83
2022-08-14T04:26:52.259Z,59.88
2022-08-14T04:37:12.154Z,59.70
2022-08-14T04:47:33.061Z,60.43
2022-08-14T04:57:34.786Z,60.09
2022-08-14T05:07:54.000Z,58.30
2022-08-14T05:18:03.666Z,57.06
2022-08-14T05:28:22.086Z,56.21
2022-08-14T05:38:30.997Z,55.50
2022-08-14T05:48:43.190Z,54.62
2022-08-14T05:58:45.918Z,53.59
2022-08-14T06:08:47.531Z,53.10
2022-08-14T06:18:52.526Z,52.78
2022-08-14T06:28:54.783Z,50.20
2022-08-14T06:38:58.746Z,26.13
2022-08-14T06:49:00.928Z,17.11
2022-08-14T06:59:02.665Z,14.12
2022-08-14T07:09:07.783Z,11.79
2022-08-14T07:19:11.186Z,11.02
2022-08-14T07:29:12.830Z,10.29
2022-08-14T07:39:14.402Z,8.94
2022-08-14T07:49:17.589Z,9.81
2022-08-14T07:59:41.258Z,8.98
2022-08-14T08:09:53.031Z,9.50
2022-08-14T08:19:54.879Z,8.92
2022-08-14T08:30:10.237Z,8.88
2022-08-14T08:40:31.441Z,8.76
2022-08-14T09:00:43.007Z,8.00
2022-08-14T09:10:45.256Z,8.24
2022-08-14T09:20:50.500Z,7.94
2022-08-14T09:30:55.747Z,8.88
2022-08-14T09:42:17.776Z,8.52
2022-08-14T09:52:33.228Z,8.88
2022-08-14T10:02:34.459Z,9.79
2022-08-14T10:12:43.623Z,8.82
2022-08-14T10:23:15.202Z,8.43
2022-08-14T10:33:08.568Z,7.26
2022-08-14T10:43:18.459Z,7.54
2022-08-14T10:53:33.150Z,7.64
2022-08-14T11:03:56.648Z,8.05
2022-08-14T11:13:58.749Z,14.11
2022-08-14T11:24:02.065Z,17.33
2022-08-14T11:34:32.275Z,19.13
2022-08-14T11:44:45.766Z,21.41
2022-08-14T11:54:57.818Z,21.20
2022-08-14T12:04:59.424Z,22.98
2022-08-14T12:15:01.121Z,21.47
2022-08-14T12:25:10.987Z,20.32
2022-08-14T12:35:14.533Z,20.65
2022-08-14T12:45:17.367Z,20.54
2022-08-14T12:55:21.577Z,19.34
2022-08-14T13:05:35.005Z,20.31
2022-08-14T13:15:38.188Z,20.42
2022-08-14T13:25:55.634Z,19.14
2022-08-14T13:35:59.520Z,18.91
2022-08-14T13:46:02.969Z,18.80
2022-08-14T13:56:06.356Z,18.26
2022-08-14T14:06:09.499Z,17.71
2022-08-14T14:16:14.790Z,18.50
2022-08-14T14:26:23.846Z,18.46
2022-08-14T14:36:29.393Z,17.66
2022-08-14T14:46:37.252Z,18.00
2022-08-14T14:56:49.690Z,17.10
2022-08-14T15:06:54.474Z,17.87
2022-08-14T15:16:59.133Z,18.18
2022-08-14T15:27:06.717Z,17.96
2022-08-14T15:37:10.923Z,18.69
2022-08-14T15:47:14.993Z,19.04
2022-08-14T15:57:24.942Z,19.28
2022-08-14T16:07:28.187Z,21.24
2022-08-14T16:17:36.237Z,21.74
2022-08-14T16:27:48.712Z,22.67
2022-08-14T16:37:55.692Z,23.93
2022-08-14T16:47:59.114Z,24.47
2022-08-14T16:58:03.302Z,24.67
2022-08-14T17:08:07.273Z,25.57
2022-08-14T17:18:39.801Z,25.62
2022-08-14T17:28:51.888Z,26.41
2022-08-14T17:39:13.531Z,27.01
2022-08-14T17:49:24.290Z,28.28
2022-08-14T17:59:27.794Z,29.22
2022-08-14T18:09:30.415Z,30.50
2022-08-14T18:19:37.979Z,31.74
2022-08-14T18:29:55.300Z,32.87
2022-08-14T18:40:15.769Z,33.64
2022-08-14T18:50:30.886Z,34.10
2022-08-14T19:00:51.367Z,35.20
2022-08-14T19:11:04.219Z,36.41
2022-08-14T19:21:23.643Z,36.68
2022-08-14T19:31:37.109Z,37.19
2022-08-14T19:41:51.852Z,37.56
2022-08-14T19:51:58.478Z,38.03
2022-08-14T20:02:01.885Z,38.90
2022-08-14T20:12:28.983Z,39.56
2022-08-14T20:22:38.514Z,40.06
2022-08-14T20:32:47.365Z,40.41
2022-08-14T20:43:12.146Z,41.14
2022-08-14T20:53:33.006Z,41.30
2022-08-14T21:03:56.286Z,41.78
2022-08-14T21:14:21.054Z,41.93
2022-08-14T21:24:38.882Z,42.79
2022-08-14T21:34:55.375Z,43.13
2022-08-14T21:44:57.265Z,43.60
2022-08-14T21:55:00.589Z,44.02
2022-08-14T22:05:11.383Z,44.68
2022-08-14T22:15:17.876Z,45.47
2022-08-14T22:25:19.566Z,45.33
2022-08-14T22:35:23.300Z,46.00
2022-08-14T22:45:25.212Z,47.17
2022-08-14T22:55:38.873Z,47.48
2022-08-14T23:05:54.565Z,48.09
2022-08-14T23:15:56.251Z,48.21
2022-08-14T23:26:47.073Z,47.71
2022-08-14T23:36:31.583Z,49.41
2022-08-14T23:46:35.183Z,50.33
2022-08-14T23:56:41.065Z,50.37
